Time;durP1;ratioP1;P1;durP2;ratioP2;P2;SDS_P1;SDS_P2;PMS_P1;PMS_P2;Temp;Humidity;BMP_temperature;BMP_pressure;BME280_temperature;BME280_humidity;BME280_pressure;Samples;Min_cycle;Max_cycle;Signal;HPM_P1;HPM_P2
2022/08/20 00:00:52;;;;;;;9.13;4.43;;;20.10;90.10;;;;;;5068902;28;20224;-58
2022/08/20 00:03:21;;;;;;;6.57;4.73;;;20.10;90.10;;;;;;5072081;28;20239;-58
2022/08/20 00:05:53;;;;;;;7.53;4.33;;;20.10;90.00;;;;;;5065829;28;20181;-58
2022/08/20 00:08:20;;;;;;;6.50;4.73;;;20.10;90.20;;;;;;5075621;28;20177;-58
2022/08/20 00:10:47;;;;;;;8.87;5.00;;;20.00;90.30;;;;;;5078640;28;20180;-58
2022/08/20 00:13:16;;;;;;;8.83;5.30;;;20.00;90.20;;;;;;5085340;28;20184;-58
2022/08/20 00:15:42;;;;;;;9.90;5.47;;;20.00;90.10;;;;;;5077800;28;20173;-57
2022/08/20 00:18:08;;;;;;;8.20;4.30;;;20.00;90.10;;;;;;5061334;28;20201;-58
2022/08/20 00:20:39;;;;;;;7.13;4.60;;;20.00;90.10;;;;;;5069712;28;20205;-58
2022/08/20 00:23:05;;;;;;;6.97;4.77;;;19.90;90.10;;;;;;5078324;28;20204;-58
2022/08/20 00:25:30;;;;;;;8.73;4.87;;;19.90;90.20;;;;;;5056614;28;20237;-58
2022/08/20 00:27:57;;;;;;;9.27;4.47;;;19.90;90.50;;;;;;5073575;28;20186;-58
2022/08/20 00:30:25;;;;;;;7.97;5.10;;;20.00;90.30;;;;;;5062049;28;20193;-58
2022/08/20 00:32:57;;;;;;;9.37;4.80;;;19.90;90.10;;;;;;5076201;28;20249;-58
2022/08/20 00:35:26;;;;;;;5.10;4.30;;;19.90;90.20;;;;;;5074699;28;20193;-58
2022/08/20 00:37:53;;;;;;;6.83;4.23;;;19.80;90.10;;;;;;5071411;28;20231;-58
2022/08/20 00:40:23;;;;;;;7.40;4.80;;;19.80;90.10;;;;;;5048671;28;20197;-58
2022/08/20 00:42:56;;;;;;;5.67;4.20;;;19.80;90.10;;;;;;5075985;28;20201;-58
2022/08/20 00:45:22;;;;;;;8.83;4.30;;;19.80;90.50;;;;;;5053831;28;20265;-58
2022/08/20 00:47:47;;;;;;;10.97;4.87;;;19.80;90.30;;;;;;5073740;28;20277;-58
2022/08/20 00:50:19;;;;;;;10.97;4.33;;;19.80;90.30;;;;;;5038774;28;20181;-58
2022/08/20 00:52:49;;;;;;;6.90;4.63;;;19.80;90.10;;;;;;5048443;28;20186;-58
2022/08/20 00:55:16;;;;;;;6.50;3.73;;;19.80;89.90;;;;;;5055612;28;20203;-58
2022/08/20 00:57:46;;;;;;;9.00;4.43;;;19.80;90.00;;;;;;5074303;28;20193;-58
2022/08/20 01:00:17;;;;;;;7.37;4.47;;;19.80;90.10;;;;;;5074419;28;20189;-57
2022/08/20 01:02:43;;;;;;;8.30;4.73;;;19.80;90.10;;;;;;5057980;28;20209;-58
2022/08/20 01:05:10;;;;;;;11.23;4.90;;;19.80;89.90;;;;;;5057091;28;20182;-58
2022/08/20 01:07:37;;;;;;;8.20;4.33;;;19.80;89.60;;;;;;5057167;28;20182;-58
2022/08/20 01:10:11;;;;;;;10.90;5.70;;;19.70;89.50;;;;;;5056831;28;20181;-58
2022/08/20 01:12:38;;;;;;;9.90;4.57;;;19.70;89.70;;;;;;5059796;28;20230;-58
2022/08/20 01:15:08;;;;;;;4.57;3.90;;;19.70;89.60;;;;;;5046967;28;20182;-58
2022/08/20 01:17:35;;;;;;;6.90;4.80;;;19.70;89.50;;;;;;5072453;28;20192;-58
2022/08/20 01:20:15;;;;;;;9.07;4.63;;;19.70;89.30;;;;;;5052858;28;20185;-58
2022/08/20 01:23:28;;;;;;;7.60;4.87;;;19.70;89.40;;;;;;5074546;28;20201;-58
2022/08/20 01:26:04;;;;;;;12.00;4.60;;;19.60;89.30;;;;;;5089438;28;20213;-58
2022/08/20 01:28:42;;;;;;;8.03;4.20;;;19.70;89.40;;;;;;5076874;28;20185;-58
2022/08/20 01:31:15;;;;;;;10.37;4.67;;;19.60;89.20;;;;;;5071026;28;20189;-58
2022/08/20 01:33:41;;;;;;;10.43;5.03;;;19.50;89.20;;;;;;5076140;28;20191;-58
2022/08/20 01:36:07;;;;;;;6.20;4.80;;;19.60;89.30;;;;;;5057491;28;20178;-58
2022/08/20 01:38:34;;;;;;;9.47;4.10;;;19.50;89.30;;;;;;5076711;28;20213;-58
2022/08/20 01:41:24;;;;;;;8.33;4.00;;;19.50;89.30;;;;;;5059833;28;20215;-58
2022/08/20 01:43:55;;;;;;;7.53;4.47;;;19.50;89.20;;;;;;5070568;28;20185;-58
2022/08/20 01:46:25;;;;;;;11.70;4.10;;;19.40;89.10;;;;;;5068235;28;20177;-58
2022/08/20 01:48:52;;;;;;;8.50;4.30;;;19.30;89.00;;;;;;5076414;28;20208;-58
2022/08/20 01:51:22;;;;;;;9.40;4.20;;;19.30;89.30;;;;;;5073121;28;20181;-58
2022/08/20 01:53:50;;;;;;;5.60;3.90;;;19.30;89.30;;;;;;5086968;28;20181;-58
2022/08/20 01:56:20;;;;;;;8.97;4.73;;;19.30;89.30;;;;;;5066913;28;20220;-58
2022/08/20 01:58:49;;;;;;;6.70;4.20;;;19.30;89.10;;;;;;5070531;28;20680;-58
2022/08/20 02:01:39;;;;;;;8.80;4.23;;;19.30;89.00;;;;;;5080874;28;20204;-58
2022/08/20 02:04:07;;;;;;;7.33;4.60;;;19.20;88.90;;;;;;5075914;28;20186;-58
2022/08/20 02:06:37;;;;;;;9.13;4.40;;;19.20;88.90;;;;;;5076483;28;20181;-58
2022/08/20 02:09:04;;;;;;;7.50;4.20;;;19.10;88.90;;;;;;5088690;28;20214;-58
2022/08/20 02:11:32;;;;;;;7.60;5.10;;;19.10;89.10;;;;;;5059881;28;20234;-58
2022/08/20 02:13:58;;;;;;;8.50;4.27;;;19.10;88.90;;;;;;5076740;28;20193;-58
2022/08/20 02:16:30;;;;;;;10.47;5.27;;;19.00;89.00;;;;;;5076640;28;20188;-58
2022/08/20 02:19:01;;;;;;;10.27;4.20;;;19.00;89.00;;;;;;5076273;28;20216;-58
2022/08/20 02:21:31;;;;;;;8.10;4.37;;;19.10;89.20;;;;;;5094342;28;20287;-58
2022/08/20 02:23:57;;;;;;;8.57;4.77;;;19.00;89.10;;;;;;5073945;28;20181;-58
2022/08/20 02:26:24;;;;;;;10.47;4.47;;;19.00;89.10;;;;;;5075303;28;20224;-57
2022/08/20 02:28:52;;;;;;;6.40;4.47;;;19.00;89.30;;;;;;5085377;28;20181;-58
2022/08/20 02:31:19;;;;;;;10.90;4.60;;;19.00;89.10;;;;;;5082243;28;20182;-58
2022/08/20 02:33:45;;;;;;;7.70;4.33;;;19.00;89.00;;;;;;5067816;28;20193;-58
2022/08/20 02:36:12;;;;;;;5.47;3.73;;;19.00;89.00;;;;;;5075248;28;20197;-58
2022/08/20 02:38:39;;;;;;;6.50;4.10;;;18.90;89.00;;;;;;5093420;28;20318;-58
2022/08/20 02:41:06;;;;;;;6.43;3.60;;;18.90;88.70;;;;;;5061862;28;20278;-58
2022/08/20 02:43:33;;;;;;;6.47;4.30;;;18.90;88.70;;;;;;5075897;28;20212;-58
2022/08/20 02:45:59;;;;;;;9.93;4.57;;;18.90;88.70;;;;;;5076291;28;20193;-58
2022/08/20 02:48:26;;;;;;;7.93;4.47;;;18.80;88.90;;;;;;5055699;28;20190;-58
2022/08/20 02:51:00;;;;;;;6.30;4.33;;;18.90;88.80;;;;;;5091405;28;20264;-58
2022/08/20 02:53:28;;;;;;;8.63;4.20;;;18.90;88.80;;;;;;5075906;28;20211;-58
2022/08/20 02:55:55;;;;;;;7.27;4.17;;;18.80;88.60;;;;;;5076266;28;20628;-58
2022/08/20 02:58:21;;;;;;;7.20;4.27;;;18.90;88.80;;;;;;5077734;28;20275;-58
2022/08/20 03:00:47;;;;;;;10.00;4.37;;;18.90;88.60;;;;;;5064016;28;20186;-58
2022/08/20 03:03:14;;;;;;;9.00;5.10;;;18.80;88.50;;;;;;5086370;28;20183;-58
2022/08/20 03:05:42;;;;;;;8.10;4.53;;;18.80;88.80;;;;;;5078289;28;20181;-58
2022/08/20 03:08:09;;;;;;;5.63;4.37;;;18.80;88.90;;;;;;5075532;28;20188;-57
2022/08/20 03:10:37;;;;;;;5.87;4.63;;;18.80;88.70;;;;;;5066435;28;20269;-58
2022/08/20 03:13:04;;;;;;;5.57;4.37;;;18.80;88.60;;;;;;5067014;28;20188;-58
2022/08/20 03:15:32;;;;;;;8.63;3.87;;;18.70;88.80;;;;;;5073886;28;20173;-58
2022/08/20 03:17:58;;;;;;;11.97;4.07;;;18.70;88.70;;;;;;5064095;28;20184;-58
2022/08/20 03:20:25;;;;;;;5.80;3.90;;;18.70;88.60;;;;;;5057214;28;20235;-58
2022/08/20 03:22:52;;;;;;;7.17;4.20;;;18.70;88.40;;;;;;5075638;28;20237;-58
2022/08/20 03:25:18;;;;;;;8.20;4.20;;;18.70;88.50;;;;;;5075547;28;20232;-58
2022/08/20 03:27:44;;;;;;;8.87;4.37;;;18.60;88.80;;;;;;5082313;28;20182;-58
2022/08/20 03:30:13;;;;;;;7.97;3.90;;;18.70;88.40;;;;;;5058960;28;20185;-58
2022/08/20 03:32:39;;;;;;;10.07;3.70;;;18.60;88.40;;;;;;5088377;28;20206;-58
2022/08/20 03:35:08;;;;;;;5.30;3.73;;;18.60;88.40;;;;;;5078499;28;20217;-57
2022/08/20 03:37:35;;;;;;;9.43;4.47;;;18.60;88.50;;;;;;5080345;28;20190;-58
2022/08/20 03:40:02;;;;;;;8.43;4.20;;;18.50;88.40;;;;;;5069135;28;20233;-57
2022/08/20 03:42:27;;;;;;;7.80;4.33;;;18.50;88.50;;;;;;5062424;28;20205;-57
2022/08/20 03:44:53;;;;;;;5.33;3.83;;;18.50;88.40;;;;;;5082795;28;20181;-58
2022/08/20 03:47:19;;;;;;;6.83;4.27;;;18.50;88.50;;;;;;5044644;28;20190;-58
2022/08/20 03:49:45;;;;;;;7.23;4.37;;;18.40;88.60;;;;;;5079423;28;20272;-58
2022/08/20 03:52:11;;;;;;;7.83;4.60;;;18.40;88.60;;;;;;5078701;28;20217;-58
2022/08/20 03:54:37;;;;;;;10.53;4.37;;;18.40;88.70;;;;;;5069805;28;20211;-58
2022/08/20 03:57:03;;;;;;;10.37;4.50;;;18.40;88.60;;;;;;5048843;28;20199;-57
2022/08/20 03:59:31;;;;;;;7.17;4.63;;;18.50;88.80;;;;;;5066619;28;20193;-58
2022/08/20 04:01:58;;;;;;;7.03;4.60;;;18.50;89.00;;;;;;5068178;28;20208;-58
2022/08/20 04:04:25;;;;;;;7.83;4.77;;;18.50;88.80;;;;;;5067712;28;20257;-58
2022/08/20 04:06:51;;;;;;;7.47;4.10;;;18.50;88.70;;;;;;5074982;28;20186;-58
2022/08/20 04:09:16;;;;;;;7.13;4.00;;;18.50;88.60;;;;;;5077037;28;20193;-58
2022/08/20 04:11:42;;;;;;;6.23;3.83;;;18.50;88.90;;;;;;5062004;28;20201;-58
2022/08/20 04:14:09;;;;;;;7.37;4.23;;;18.50;88.50;;;;;;5078595;28;20189;-58
2022/08/20 04:16:36;;;;;;;6.43;4.00;;;18.50;88.30;;;;;;5077855;28;20215;-58
2022/08/20 04:19:02;;;;;;;13.97;4.27;;;18.50;88.30;;;;;;5068267;28;20200;-58
2022/08/20 04:21:32;;;;;;;7.60;4.10;;;18.50;88.50;;;;;;5044570;28;20217;-58
2022/08/20 04:23:58;;;;;;;7.50;3.97;;;18.50;88.40;;;;;;5068226;28;20186;-58
2022/08/20 04:26:24;;;;;;;7.57;4.27;;;18.40;88.40;;;;;;5056766;28;20233;-58
2022/08/20 04:28:51;;;;;;;6.93;3.97;;;18.40;88.50;;;;;;5047975;28;20188;-58
2022/08/20 04:31:17;;;;;;;6.70;4.60;;;18.40;88.50;;;;;;5089913;28;20180;-58
2022/08/20 04:33:43;;;;;;;7.93;4.10;;;18.40;88.50;;;;;;5092400;28;20188;-58
2022/08/20 04:36:09;;;;;;;7.27;4.93;;;18.40;88.40;;;;;;5068611;28;20221;-58
2022/08/20 04:38:35;;;;;;;9.43;5.13;;;18.40;88.50;;;;;;5083120;28;20188;-58
2022/08/20 04:41:00;;;;;;;6.17;4.07;;;18.40;88.40;;;;;;5093282;28;20210;-57
2022/08/20 04:43:35;;;;;;;6.37;4.10;;;18.40;88.70;;;;;;5057975;28;20299;-58
2022/08/20 04:46:04;;;;;;;10.47;4.67;;;18.40;88.60;;;;;;5095654;28;20188;-58
2022/08/20 04:48:31;;;;;;;7.27;4.30;;;18.40;88.70;;;;;;5070796;28;20236;-58
2022/08/20 04:50:57;;;;;;;9.83;4.70;;;18.40;88.60;;;;;;5066154;28;20177;-58
2022/08/20 04:53:26;;;;;;;9.17;4.40;;;18.40;88.50;;;;;;5071549;28;20644;-58
2022/08/20 04:55:54;;;;;;;7.90;4.27;;;18.40;88.50;;;;;;5074684;28;20448;-58
2022/08/20 04:58:33;;;;;;;7.90;4.80;;;18.40;88.50;;;;;;5079749;28;20185;-58
2022/08/20 05:01:05;;;;;;;5.57;4.17;;;18.40;88.50;;;;;;5081489;28;20220;-58
2022/08/20 05:03:31;;;;;;;5.67;4.40;;;18.50;88.60;;;;;;5085603;28;20185;-58
2022/08/20 05:05:57;;;;;;;10.57;4.20;;;18.40;88.50;;;;;;5078027;28;20185;-58
2022/08/20 05:08:24;;;;;;;6.83;3.97;;;18.40;88.70;;;;;;5088899;28;20183;-58
2022/08/20 05:10:51;;;;;;;6.27;4.43;;;18.40;88.70;;;;;;5057754;28;20186;-58
2022/08/20 05:13:17;;;;;;;7.07;4.43;;;18.40;88.70;;;;;;5074892;28;20185;-58
2022/08/20 05:15:44;;;;;;;8.77;4.27;;;18.50;89.00;;;;;;5063725;28;20203;-57
2022/08/20 05:18:10;;;;;;;8.53;4.50;;;18.50;88.80;;;;;;5095632;28;20191;-58
2022/08/20 05:20:39;;;;;;;6.77;4.50;;;18.50;88.70;;;;;;5094224;28;20219;-57
2022/08/20 05:23:07;;;;;;;5.17;4.17;;;18.50;88.90;;;;;;5079915;28;20208;-58
2022/08/20 05:25:33;;;;;;;9.30;4.47;;;18.60;88.80;;;;;;5093580;28;20261;-58
2022/08/20 05:28:04;;;;;;;7.60;5.10;;;18.60;88.90;;;;;;5068659;28;20215;-58
2022/08/20 05:30:32;;;;;;;6.23;3.63;;;18.60;88.90;;;;;;5082309;28;20180;-58
2022/08/20 05:32:59;;;;;;;4.77;3.97;;;18.60;88.60;;;;;;5095006;28;20200;-58
2022/08/20 05:35:26;;;;;;;9.90;4.50;;;18.60;88.80;;;;;;5082605;28;20194;-58
2022/08/20 05:37:52;;;;;;;6.40;4.33;;;18.70;89.00;;;;;;5072508;28;20184;-58
2022/08/20 05:40:20;;;;;;;9.27;4.40;;;18.70;88.90;;;;;;5086124;28;20194;-59
2022/08/20 05:42:46;;;;;;;7.60;4.73;;;18.70;88.70;;;;;;5082258;28;20352;-59
2022/08/20 05:45:11;;;;;;;9.77;4.90;;;18.70;88.60;;;;;;5093501;28;20269;-59
2022/08/20 05:47:39;;;;;;;8.40;4.20;;;18.70;88.90;;;;;;5050288;28;20189;-59
2022/08/20 05:50:06;;;;;;;8.30;4.20;;;18.70;88.60;;;;;;5077673;28;20284;-59
2022/08/20 05:52:32;;;;;;;4.90;3.77;;;18.70;88.60;;;;;;5056095;28;20189;-59
2022/08/20 05:54:58;;;;;;;5.50;3.77;;;18.70;88.70;;;;;;5084228;28;20239;-59
2022/08/20 05:57:23;;;;;;;7.67;5.17;;;18.70;88.60;;;;;;5083070;28;20188;-59
2022/08/20 05:59:49;;;;;;;8.00;4.13;;;18.70;88.70;;;;;;5081263;28;20196;-59
2022/08/20 06:04:59;;;;;;;7.20;4.00;;;18.80;88.70;;;;;;5072084;28;20190;-59
2022/08/20 06:07:24;;;;;;;8.10;4.73;;;18.80;88.80;;;;;;5042513;28;20181;-59
2022/08/20 06:09:50;;;;;;;8.63;5.13;;;18.80;88.90;;;;;;5050587;28;20190;-57
2022/08/20 06:12:16;;;;;;;7.37;4.73;;;18.80;88.90;;;;;;5079385;28;20196;-58
2022/08/20 06:14:43;;;;;;;6.93;4.60;;;18.80;88.80;;;;;;5076792;28;20271;-58
2022/08/20 06:17:12;;;;;;;8.17;4.57;;;18.90;88.70;;;;;;5073710;28;20219;-57
2022/08/20 06:19:38;;;;;;;8.50;4.43;;;18.90;88.60;;;;;;5068690;28;20273;-59
2022/08/20 06:22:05;;;;;;;5.80;4.07;;;18.90;88.50;;;;;;5067694;28;20200;-59
2022/08/20 06:24:31;;;;;;;8.67;4.63;;;19.00;88.50;;;;;;5095992;28;20247;-58
2022/08/20 06:27:00;;;;;;;10.70;5.03;;;19.00;88.40;;;;;;5098932;28;20222;-58
2022/08/20 06:29:26;;;;;;;8.90;4.57;;;19.00;88.40;;;;;;5071365;28;20325;-57
2022/08/20 06:31:52;;;;;;;7.87;5.00;;;19.00;88.60;;;;;;5058048;28;20189;-58
2022/08/20 06:34:18;;;;;;;8.00;4.23;;;19.00;88.50;;;;;;5052234;28;20197;-57
2022/08/20 06:36:47;;;;;;;6.60;4.70;;;19.10;88.60;;;;;;5042597;28;20185;-58
2022/08/20 06:39:14;;;;;;;8.40;5.07;;;19.10;88.20;;;;;;5057466;28;20240;-58
2022/08/20 06:41:40;;;;;;;7.07;4.40;;;19.10;88.30;;;;;;5072619;28;20299;-56
2022/08/20 06:44:06;;;;;;;8.93;4.90;;;19.10;88.20;;;;;;5062744;28;20323;-57
2022/08/20 06:46:36;;;;;;;10.57;4.63;;;19.20;88.30;;;;;;5081949;28;20189;-58
2022/08/20 06:49:04;;;;;;;10.40;4.17;;;19.20;88.30;;;;;;5081301;28;20550;-55
2022/08/20 06:51:30;;;;;;;8.63;4.13;;;19.20;88.40;;;;;;5065840;28;20191;-57
2022/08/20 06:53:56;;;;;;;7.30;4.30;;;19.20;88.40;;;;;;5060991;28;20189;-58
2022/08/20 06:56:22;;;;;;;5.80;4.50;;;19.20;88.60;;;;;;5094164;28;20214;-53
2022/08/20 06:58:48;;;;;;;8.33;4.67;;;19.20;88.50;;;;;;5042825;28;20192;-59
2022/08/20 07:01:16;;;;;;;10.63;4.80;;;19.30;88.40;;;;;;5057848;28;20215;-58
2022/08/20 07:03:42;;;;;;;7.50;3.83;;;19.30;88.40;;;;;;5073224;28;20188;-59
2022/08/20 07:06:08;;;;;;;6.47;4.67;;;19.30;88.40;;;;;;5082955;28;20185;-59
2022/08/20 07:08:34;;;;;;;9.93;4.17;;;19.30;88.50;;;;;;5067281;28;20186;-59
2022/08/20 07:11:00;;;;;;;4.93;4.03;;;19.30;88.50;;;;;;5081449;28;20257;-59
2022/08/20 07:13:27;;;;;;;7.97;4.00;;;19.30;88.50;;;;;;5063050;28;20220;-59
2022/08/20 07:15:53;;;;;;;6.70;4.30;;;19.30;88.60;;;;;;5079789;28;20185;-59
2022/08/20 07:18:19;;;;;;;6.27;4.37;;;19.50;88.80;;;;;;5054694;28;20185;-59
2022/08/20 07:20:45;;;;;;;3.90;3.40;;;19.40;88.80;;;;;;5095777;28;20246;-57
2022/08/20 07:23:11;;;;;;;7.50;4.00;;;19.50;88.70;;;;;;5043561;28;20210;-57
2022/08/20 07:25:40;;;;;;;6.80;4.17;;;19.50;88.70;;;;;;5046152;28;20237;-57
2022/08/20 07:28:21;;;;;;;8.27;4.23;;;19.50;88.60;;;;;;5055863;28;20185;-57
2022/08/20 07:33:33;;;;;;;5.03;3.60;;;19.60;88.20;;;;;;5076966;28;20224;-57
2022/08/20 07:36:00;;;;;;;7.00;4.03;;;19.60;87.90;;;;;;5049174;28;20193;-58
2022/08/20 07:38:29;;;;;;;7.50;3.60;;;19.60;87.90;;;;;;5042175;28;20192;-58
2022/08/20 07:40:58;;;;;;;5.60;3.73;;;19.70;88.00;;;;;;5053548;28;20235;-59
2022/08/20 07:43:25;;;;;;;6.70;3.10;;;19.70;87.70;;;;;;5055403;28;20235;-59
2022/08/20 07:45:54;;;;;;;6.07;3.87;;;19.70;87.70;;;;;;5055089;28;20178;-59
2022/08/20 07:48:21;;;;;;;3.53;3.20;;;19.80;87.80;;;;;;5058426;28;20181;-59
2022/08/20 07:50:48;;;;;;;3.93;3.20;;;19.80;87.90;;;;;;5041507;28;20177;-59
2022/08/20 07:53:15;;;;;;;5.37;2.77;;;19.80;87.80;;;;;;5035400;28;20186;-59
2022/08/20 07:55:41;;;;;;;3.70;2.70;;;19.80;83.80;;;;;;5056323;28;20185;-59
2022/08/20 07:58:12;;;;;;;4.10;2.80;;;19.90;83.00;;;;;;5042825;28;20273;-58
2022/08/20 08:00:39;;;;;;;4.00;2.43;;;19.90;84.20;;;;;;5058095;28;20182;-58
2022/08/20 08:03:05;;;;;;;3.03;2.47;;;19.90;84.80;;;;;;5054880;28;20201;-58
2022/08/20 08:05:34;;;;;;;3.37;2.70;;;19.90;85.20;;;;;;5056729;28;20251;-57
2022/08/20 08:08:00;;;;;;;3.50;2.63;;;20.00;85.50;;;;;;5073640;28;20185;-57
2022/08/20 08:10:26;;;;;;;5.07;3.00;;;20.00;85.90;;;;;;5047333;28;20189;-58
2022/08/20 08:12:57;;;;;;;5.93;3.03;;;20.10;86.10;;;;;;5058435;28;20224;-58
2022/08/20 08:15:32;;;;;;;2.50;2.27;;;20.20;86.30;;;;;;5052807;28;20244;-57
2022/08/20 08:18:03;;;;;;;3.03;2.33;;;20.10;86.10;;;;;;5048519;28;20227;-57
2022/08/20 08:20:28;;;;;;;2.50;2.30;;;20.20;86.00;;;;;;5052455;28;20186;-57
2022/08/20 08:22:54;;;;;;;1.60;1.50;;;20.20;86.10;;;;;;5030908;28;20202;-57
2022/08/20 08:25:20;;;;;;;4.30;2.20;;;20.20;81.30;;;;;;5059830;28;20229;-57
2022/08/20 08:27:47;;;;;;;2.83;1.90;;;20.30;83.00;;;;;;5058131;28;20224;-56
2022/08/20 08:30:13;;;;;;;1.80;1.63;;;20.30;82.70;;;;;;5063759;28;20205;-59
2022/08/20 08:33:26;;;;;;;2.47;1.97;;;20.40;81.10;;;;;;5077560;28;20188;-59
2022/08/20 08:35:25;;;;;;;2.73;1.17;;;20.40;82.10;;;;;;5081160;28;20181;-58
2022/08/20 08:37:52;;;;;;;1.53;1.40;;;20.70;76.60;;;;;;5061307;28;20184;-58
2022/08/20 08:40:19;;;;;;;1.33;1.07;;;20.80;77.60;;;;;;5062118;28;20181;-58
2022/08/20 08:42:56;;;;;;;1.07;0.90;;;20.80;74.50;;;;;;5073728;28;20295;-57
2022/08/20 08:45:25;;;;;;;1.03;0.93;;;20.90;74.70;;;;;;5078052;28;20188;-57
2022/08/20 08:47:53;;;;;;;2.30;0.80;;;21.00;74.70;;;;;;5062283;28;20211;-58
2022/08/20 08:50:30;;;;;;;1.80;0.83;;;21.30;72.20;;;;;;5076934;28;20315;-58
2022/08/20 08:52:59;;;;;;;1.50;0.60;;;21.50;70.80;;;;;;5075891;28;20180;-58
2022/08/20 08:55:27;;;;;;;0.70;0.60;;;21.50;70.10;;;;;;5073443;28;20188;-59
2022/08/20 08:57:58;;;;;;;1.10;0.90;;;21.60;71.20;;;;;;5058542;28;20186;-58
2022/08/20 09:00:27;;;;;;;1.00;0.90;;;21.60;69.50;;;;;;5064768;28;20189;-56
2022/08/20 09:03:01;;;;;;;0.43;0.43;;;21.70;73.20;;;;;;5071888;28;20213;-59
2022/08/20 09:05:39;;;;;;;0.60;0.60;;;21.80;71.10;;;;;;5077776;28;20173;-58
2022/08/20 09:08:08;;;;;;;0.77;0.77;;;21.90;69.90;;;;;;5095793;28;20256;-58
2022/08/20 09:10:34;;;;;;;1.30;0.80;;;21.90;69.70;;;;;;5077559;28;20192;-58
2022/08/20 09:13:00;;;;;;;1.13;0.80;;;22.10;64.70;;;;;;5069489;28;20188;-58
2022/08/20 09:15:26;;;;;;;2.00;1.20;;;22.30;65.00;;;;;;5041846;28;20280;-59
2022/08/20 09:17:52;;;;;;;1.37;0.87;;;22.30;67.20;;;;;;5087703;28;20177;-59
2022/08/20 09:20:18;;;;;;;1.63;0.70;;;22.30;68.20;;;;;;5043996;28;20193;-57
2022/08/20 09:22:43;;;;;;;0.80;0.80;;;22.30;69.90;;;;;;5053382;28;20285;-59
2022/08/20 09:25:09;;;;;;;2.37;0.60;;;22.40;69.40;;;;;;5055872;28;20332;-56
2022/08/20 09:27:35;;;;;;;1.30;0.80;;;22.50;68.70;;;;;;5072965;28;20181;-57
2022/08/20 09:30:00;;;;;;;1.67;0.70;;;22.50;69.80;;;;;;5059850;28;20204;-58
2022/08/20 09:32:26;;;;;;;0.50;0.50;;;22.50;68.20;;;;;;5059974;28;20203;-58
2022/08/20 09:34:58;;;;;;;0.60;0.60;;;22.60;67.60;;;;;;5075065;28;20268;-58
2022/08/20 09:37:26;;;;;;;1.53;0.60;;;22.60;64.60;;;;;;5092971;28;20225;-58
2022/08/20 09:39:52;;;;;;;0.87;0.80;;;22.60;66.30;;;;;;5070316;28;20208;-58
2022/08/20 09:42:22;;;;;;;0.90;0.70;;;22.70;66.10;;;;;;5083820;28;20200;-58
2022/08/20 09:44:49;;;;;;;0.60;0.60;;;22.60;68.00;;;;;;5069239;28;20181;-58
2022/08/20 09:47:16;;;;;;;0.67;0.60;;;22.80;61.80;;;;;;5062193;28;20245;-57
2022/08/20 09:49:42;;;;;;;0.90;0.77;;;22.80;61.50;;;;;;5064017;28;20185;-57
2022/08/20 09:52:10;;;;;;;1.57;1.10;;;22.90;60.90;;;;;;5058652;28;20189;-58
2022/08/20 09:54:38;;;;;;;3.40;0.93;;;22.90;62.50;;;;;;5074255;28;20268;-58
2022/08/20 09:57:06;;;;;;;0.73;0.73;;;22.90;61.60;;;;;;5059471;28;20242;-57
2022/08/20 09:59:33;;;;;;;1.63;0.80;;;22.80;60.90;;;;;;5076023;28;20212;-57
2022/08/20 10:01:59;;;;;;;1.43;0.60;;;23.00;59.90;;;;;;5075474;28;20216;-58
2022/08/20 10:04:25;;;;;;;0.60;0.60;;;23.10;61.40;;;;;;5057143;28;20189;-58
2022/08/20 10:06:51;;;;;;;1.23;0.90;;;23.10;60.40;;;;;;5056641;28;20200;-58
2022/08/20 10:09:17;;;;;;;0.80;0.80;;;23.10;61.10;;;;;;5076283;28;20181;-56
2022/08/20 10:11:42;;;;;;;0.50;0.50;;;23.30;59.50;;;;;;5055706;28;20192;-57
2022/08/20 10:14:08;;;;;;;0.50;0.50;;;23.40;58.30;;;;;;5039433;28;20185;-57
2022/08/20 10:16:35;;;;;;;0.60;0.60;;;23.70;56.80;;;;;;5043332;28;20203;-58
2022/08/20 10:19:01;;;;;;;0.60;0.50;;;23.60;57.70;;;;;;5059301;28;20193;-59
2022/08/20 10:21:29;;;;;;;0.50;0.40;;;23.70;57.40;;;;;;5059409;28;20224;-57
2022/08/20 10:23:54;;;;;;;0.50;0.50;;;23.60;57.70;;;;;;5072993;28;20185;-58
2022/08/20 10:26:20;;;;;;;0.60;0.60;;;23.70;57.50;;;;;;5036777;28;20237;-58
2022/08/20 10:28:46;;;;;;;1.23;0.40;;;23.60;59.60;;;;;;5035620;28;20204;-58
2022/08/20 10:31:11;;;;;;;1.40;0.47;;;23.60;57.60;;;;;;5035652;28;20188;-58
2022/08/20 10:33:39;;;;;;;0.93;0.90;;;23.50;59.50;;;;;;5059651;28;20185;-58
2022/08/20 10:36:14;;;;;;;0.60;0.60;;;23.40;59.90;;;;;;5086828;28;20235;-58
2022/08/20 10:38:40;;;;;;;1.27;0.67;;;23.30;60.90;;;;;;5075027;28;20276;-58
2022/08/20 10:41:06;;;;;;;2.33;1.40;;;23.20;60.00;;;;;;5076764;28;20235;-58
2022/08/20 10:43:32;;;;;;;2.40;1.60;;;23.20;60.00;;;;;;5071361;28;20189;-58
2022/08/20 10:45:58;;;;;;;0.80;0.80;;;23.20;61.20;;;;;;5067998;28;20186;-57
2022/08/20 10:48:23;;;;;;;2.23;1.10;;;23.20;62.10;;;;;;5086628;28;20191;-57
2022/08/20 10:50:49;;;;;;;3.27;1.50;;;23.10;61.80;;;;;;5087609;28;20216;-58
2022/08/20 10:53:16;;;;;;;3.87;1.70;;;23.20;62.10;;;;;;5076430;28;20185;-58
2022/08/20 10:55:41;;;;;;;3.20;1.37;;;23.10;62.90;;;;;;5073049;28;20192;-57
2022/08/20 10:58:08;;;;;;;4.40;1.70;;;23.10;63.10;;;;;;5071783;28;20189;-58
2022/08/20 11:00:35;;;;;;;2.00;1.40;;;23.10;64.10;;;;;;5090011;28;20200;-57
2022/08/20 11:03:01;;;;;;;3.20;1.30;;;23.10;63.80;;;;;;5070696;28;20215;-57
2022/08/20 11:05:27;;;;;;;2.13;0.80;;;23.10;63.40;;;;;;5065777;28;20208;-57
2022/08/20 11:07:58;;;;;;;1.40;0.97;;;23.10;63.80;;;;;;5075350;28;20188;-58
2022/08/20 11:10:26;;;;;;;2.27;0.93;;;23.10;64.00;;;;;;5075298;28;20185;-58
2022/08/20 11:12:52;;;;;;;2.07;1.00;;;23.10;62.20;;;;;;5075965;28;20216;-57
2022/08/20 11:15:18;;;;;;;1.80;0.90;;;23.10;63.00;;;;;;5074839;28;20227;-57
2022/08/20 11:17:44;;;;;;;0.90;0.80;;;23.10;64.10;;;;;;5074545;28;20204;-57
2022/08/20 11:20:13;;;;;;;2.93;1.13;;;23.10;62.80;;;;;;5057487;28;20238;-57
2022/08/20 11:22:39;;;;;;;1.10;0.63;;;23.10;63.00;;;;;;5092633;28;20205;-57
2022/08/20 11:25:05;;;;;;;0.80;0.80;;;23.10;64.00;;;;;;5059495;28;20244;-57
2022/08/20 11:27:34;;;;;;;0.87;0.77;;;23.10;61.00;;;;;;5061968;28;20193;-57
2022/08/20 11:30:00;;;;;;;0.70;0.70;;;23.10;61.70;;;;;;5082768;28;20188;-58
2022/08/20 11:32:26;;;;;;;1.00;1.00;;;23.10;60.20;;;;;;5045380;28;20193;-57
2022/08/20 11:34:52;;;;;;;1.50;1.03;;;23.10;60.30;;;;;;5065116;28;20202;-57
2022/08/20 11:37:21;;;;;;;0.63;0.60;;;23.10;61.90;;;;;;5071188;28;20186;-57
2022/08/20 11:39:46;;;;;;;0.43;0.43;;;23.10;59.30;;;;;;5081437;28;20196;-57
2022/08/20 11:42:12;;;;;;;1.23;0.60;;;23.10;60.60;;;;;;5054955;28;20230;-59
2022/08/20 11:44:38;;;;;;;1.07;0.70;;;23.00;61.10;;;;;;5054404;28;20185;-59
2022/08/20 11:47:05;;;;;;;1.33;0.50;;;23.00;61.00;;;;;;5037327;28;20194;-60
2022/08/20 11:49:33;;;;;;;0.67;0.50;;;23.00;59.50;;;;;;5055647;28;20272;-60
2022/08/20 11:51:59;;;;;;;0.43;0.37;;;23.00;58.90;;;;;;5055650;28;20186;-60
2022/08/20 11:54:27;;;;;;;0.30;0.30;;;23.00;59.70;;;;;;5072939;28;20205;-60
2022/08/20 11:56:56;;;;;;;0.50;0.50;;;23.00;60.90;;;;;;5029575;28;20233;-60
2022/08/20 11:59:26;;;;;;;1.27;0.40;;;23.00;61.10;;;;;;5071619;28;20190;-58
2022/08/20 12:01:56;;;;;;;0.57;0.50;;;23.00;62.40;;;;;;5026975;28;20225;-60
2022/08/20 12:04:22;;;;;;;1.00;0.90;;;23.00;62.80;;;;;;5042196;28;20209;-60
2022/08/20 12:06:47;;;;;;;1.50;1.40;;;23.00;61.10;;;;;;5030762;28;20218;-58
2022/08/20 12:09:13;;;;;;;2.63;1.57;;;22.90;63.10;;;;;;5039563;28;20413;-60
2022/08/20 12:11:39;;;;;;;3.27;1.50;;;22.90;64.40;;;;;;5037602;28;20190;-59
2022/08/20 12:14:05;;;;;;;2.90;1.50;;;22.90;64.80;;;;;;5029464;28;20201;-58
2022/08/20 12:16:30;;;;;;;1.97;1.40;;;22.90;65.70;;;;;;5029123;28;20195;-57
2022/08/20 12:18:56;;;;;;;2.93;1.80;;;22.90;66.40;;;;;;5058169;28;20220;-56
2022/08/20 12:21:21;;;;;;;2.87;1.80;;;22.90;67.20;;;;;;5041776;28;20209;-58
2022/08/20 12:23:47;;;;;;;4.07;1.90;;;22.90;67.50;;;;;;5058464;28;20260;-58
2022/08/20 12:26:15;;;;;;;1.53;1.30;;;22.80;68.00;;;;;;5041806;28;20263;-58
2022/08/20 12:28:41;;;;;;;1.13;0.80;;;22.90;66.40;;;;;;5075974;28;20173;-58
2022/08/20 12:31:06;;;;;;;0.50;0.50;;;22.80;63.30;;;;;;5022822;28;20200;-58
2022/08/20 12:33:32;;;;;;;0.40;0.40;;;22.70;60.50;;;;;;5018080;28;20186;-58
2022/08/20 12:35:58;;;;;;;0.30;0.30;;;22.70;59.60;;;;;;5032621;28;20228;-58
2022/08/20 12:38:24;;;;;;;0.30;0.30;;;22.70;57.30;;;;;;5055817;28;20204;-58
2022/08/20 12:40:49;;;;;;;0.30;0.30;;;22.80;59.00;;;;;;5058374;28;20285;-58
2022/08/20 12:43:15;;;;;;;0.50;0.30;;;22.70;59.30;;;;;;5024916;28;20280;-58
2022/08/20 12:45:40;;;;;;;0.30;0.30;;;22.70;58.20;;;;;;5058246;28;20197;-58
2022/08/20 12:48:10;;;;;;;0.27;0.27;;;22.80;59.10;;;;;;5025319;28;20190;-58
2022/08/20 12:50:38;;;;;;;0.40;0.40;;;22.80;59.00;;;;;;5065111;28;20213;-58
2022/08/20 12:53:03;;;;;;;0.53;0.50;;;22.80;59.50;;;;;;5055665;28;20192;-58